Decoded Metar for SADF (SAN FERNANDO in ARGENTINA) (IATA:N/A) | Meteo·Mobile Aviation Weather
aviador You're here:

SADF Decoded Metar

SAN FERNANDO in ARGENTINA
Report Time2018-09-22 08:00:00
UTC Time2018-09-22 08:47:33
Flight Rules vfr VFR
Wind020° at 05 kt
W.Decomp.*RWY 05: 4.6 kt HW 1.9 kt LCW
W.Rank020° ranks 8
Current wind is below 020° avg. (5.8)
Visibility9999 m
Phenomena:N/A
Clouds:N/A
Expected CloudBase > 800 ft AGL from Temp-Dew spread
CeilingNone
Temp19°C (ISA +4)
Dew Point17°C (88% RH)
QNH1007 hPa
Density Alt945 ft
Elevation13 ft
Report Wrong Elevation
Raw Report
METAR SADF 220800Z 02005KT CAVOK 19/17 Q1007=

Extra information for SADF:More info

Metar Taf Metar & Taf Last 4 Metars F.Rules Stats Wind Profile Meteogram Temp Stats Airport Information Weather charts Add Link Nearby VenuesMetar ALERT Operation Metar Decoded Social comments